createdAt,value
2022-08-23T00:03:26.104Z,20.30
2022-08-23T00:08:29.359Z,20.28
2022-08-23T00:13:47.864Z,20.31
2022-08-23T00:18:52.588Z,20.31
2022-08-23T00:23:55.349Z,20.25
2022-08-23T00:28:58.034Z,20.25
2022-08-23T00:34:02.061Z,20.26
2022-08-23T00:39:05.543Z,20.23
2022-08-23T00:44:29.563Z,20.16
2022-08-23T00:49:34.943Z,20.07
2022-08-23T00:54:39.329Z,20.02
2022-08-23T00:59:42.252Z,20.05
2022-08-23T01:04:50.696Z,20.00
2022-08-23T01:09:55.775Z,20.03
2022-08-23T01:15:00.765Z,19.92
2022-08-23T01:20:07.761Z,19.93
2022-08-23T01:25:18.698Z,19.93
2022-08-23T01:30:24.567Z,19.94
2022-08-23T01:35:35.536Z,19.93
2022-08-23T01:40:41.355Z,19.94
2022-08-23T01:45:44.180Z,19.95
2022-08-23T01:50:48.401Z,19.84
2022-08-23T01:55:52.494Z,19.79
2022-08-23T02:00:56.400Z,19.81
2022-08-23T02:05:59.822Z,19.80
2022-08-23T02:11:10.091Z,19.73
2022-08-23T02:16:15.149Z,19.60
2022-08-23T02:21:19.169Z,19.49
2022-08-23T02:26:31.132Z,19.53
2022-08-23T02:31:34.656Z,19.40
2022-08-23T02:36:37.891Z,19.30
2022-08-23T02:41:42.672Z,19.37
2022-08-23T02:46:47.507Z,19.33
2022-08-23T02:51:51.099Z,19.31
2022-08-23T02:56:55.313Z,19.26
2022-08-23T03:01:59.324Z,19.21
2022-08-23T03:07:07.446Z,19.15
2022-08-23T03:12:12.813Z,19.01
2022-08-23T03:17:20.223Z,18.87
2022-08-23T03:22:24.261Z,18.94
2022-08-23T03:27:31.531Z,18.78
2022-08-23T03:32:41.358Z,18.87
2022-08-23T03:37:55.311Z,18.70
2022-08-23T03:43:01.224Z,18.66
2022-08-23T03:48:05.866Z,18.60
2022-08-23T03:53:12.323Z,18.67
2022-08-23T03:58:18.120Z,18.56
2022-08-23T04:03:20.855Z,18.50
2022-08-23T04:08:34.548Z,18.53
2022-08-23T04:13:41.507Z,18.50
2022-08-23T04:18:44.463Z,18.39
2022-08-23T04:23:47.976Z,18.44
2022-08-23T04:28:52.003Z,18.40
2022-08-23T04:33:55.572Z,18.32
2022-08-23T04:38:58.339Z,18.27
2022-08-23T04:44:02.657Z,18.22
2022-08-23T04:49:06.487Z,18.13
2022-08-23T04:54:09.303Z,18.39
2022-08-23T04:59:19.610Z,18.39
2022-08-23T05:04:22.361Z,18.21
2022-08-23T05:09:25.121Z,18.45
2022-08-23T05:14:29.146Z,18.51
2022-08-23T05:19:32.636Z,18.49
2022-08-23T05:24:35.292Z,18.52
2022-08-23T05:29:39.328Z,18.54
2022-08-23T05:34:42.689Z,18.72
2022-08-23T05:39:46.722Z,18.78
2022-08-23T05:44:50.744Z,18.81
2022-08-23T05:49:55.511Z,19.15
2022-08-23T05:54:59.028Z,19.11
2022-08-23T06:00:40.494Z,19.33
2022-08-23T06:05:44.384Z,19.30
2022-08-23T06:10:49.316Z,19.45
2022-08-23T06:16:00.719Z,19.41
2022-08-23T06:21:18.288Z,19.50
2022-08-23T06:26:26.043Z,19.68
2022-08-23T06:31:48.932Z,19.86
2022-08-23T06:37:01.399Z,19.89
2022-08-23T06:42:38.324Z,20.19
2022-08-23T06:47:43.276Z,20.19
2022-08-23T06:52:48.219Z,20.37
2022-08-23T06:58:08.518Z,20.57
2022-08-23T07:03:37.237Z,20.71
2022-08-23T07:08:59.527Z,21.04
2022-08-23T07:14:03.892Z,21.21
2022-08-23T07:19:09.063Z,21.40
2022-08-23T07:24:13.443Z,21.29
2022-08-23T07:29:17.439Z,21.58
2022-08-23T07:34:22.440Z,21.41
2022-08-23T07:39:26.311Z,21.63
2022-08-23T07:44:30.006Z,22.09
2022-08-23T07:49:35.357Z,22.39
2022-08-23T07:54:39.581Z,22.50
2022-08-23T08:00:17.628Z,22.48
2022-08-23T08:05:33.759Z,22.12
2022-08-23T08:10:38.252Z,21.90
2022-08-23T08:15:42.363Z,21.88
2022-08-23T08:20:50.171Z,21.93
2022-08-23T08:26:22.918Z,21.95
2022-08-23T08:31:30.514Z,22.00
2022-08-23T08:36:38.097Z,22.14
2022-08-23T08:42:04.602Z,22.42
2022-08-23T08:47:10.543Z,23.06
2022-08-23T08:52:19.643Z,23.37
2022-08-23T08:57:27.413Z,23.43
2022-08-23T09:02:33.729Z,23.83
2022-08-23T09:07:48.298Z,23.73
2022-08-23T09:12:57.377Z,24.14
2022-08-23T09:18:09.032Z,24.28
2022-08-23T09:23:18.424Z,24.32
2022-08-23T09:28:22.301Z,24.56
2022-08-23T09:33:27.100Z,24.88
2022-08-23T09:38:33.825Z,24.79
2022-08-23T09:43:47.109Z,24.86
2022-08-23T09:48:55.043Z,25.04
2022-08-23T09:54:09.054Z,25.24
2022-08-23T09:59:34.067Z,25.47
2022-08-23T10:04:47.202Z,25.53
2022-08-23T10:09:52.043Z,25.81
2022-08-23T10:14:55.446Z,25.99
2022-08-23T10:20:05.639Z,26.10
2022-08-23T10:25:16.130Z,26.34
2022-08-23T10:30:20.327Z,26.49
2022-08-23T10:35:38.227Z,26.77
2022-08-23T10:40:46.734Z,26.62
2022-08-23T10:45:50.390Z,26.82
2022-08-23T10:51:06.648Z,27.23
2022-08-23T10:56:16.164Z,27.30
2022-08-23T11:01:27.458Z,27.09
2022-08-23T11:06:52.072Z,27.07
2022-08-23T11:12:23.060Z,27.77
2022-08-23T11:17:28.679Z,28.05
2022-08-23T11:22:33.525Z,27.89
2022-08-23T11:27:40.811Z,27.94
2022-08-23T11:32:47.845Z,28.13
2022-08-23T11:38:01.627Z,28.37
2022-08-23T11:43:15.149Z,28.69
2022-08-23T11:48:22.976Z,28.62
2022-08-23T11:53:50.168Z,28.89
2022-08-23T11:59:09.087Z,28.98
2022-08-23T12:04:15.119Z,28.81
2022-08-23T12:09:51.138Z,29.11
2022-08-23T12:14:57.409Z,29.41
2022-08-23T12:20:02.040Z,29.62
2022-08-23T12:25:08.858Z,29.47
2022-08-23T12:30:22.649Z,29.95
2022-08-23T12:35:33.568Z,30.00
2022-08-23T12:40:42.111Z,30.01
2022-08-23T12:45:50.191Z,30.09
2022-08-23T12:50:56.865Z,30.17
2022-08-23T12:56:04.390Z,29.24
2022-08-23T13:01:18.206Z,30.02
2022-08-23T13:06:23.444Z,29.59
2022-08-23T13:11:27.008Z,30.24
2022-08-23T13:16:33.709Z,29.54
2022-08-23T13:21:39.574Z,29.24
2022-08-23T13:26:44.205Z,30.22
2022-08-23T13:32:03.178Z,30.08
2022-08-23T13:37:17.525Z,30.14
2022-08-23T13:42:29.489Z,30.36
2022-08-23T13:47:35.843Z,30.31
2022-08-23T13:53:03.086Z,30.25
2022-08-23T13:58:03.209Z,30.37
2022-08-23T14:03:07.829Z,30.41
2022-08-23T14:08:10.821Z,30.62
2022-08-23T14:13:14.373Z,30.52
2022-08-23T14:18:18.912Z,30.14
2022-08-23T14:23:21.565Z,30.45
2022-08-23T14:28:26.169Z,30.57
2022-08-23T14:33:33.660Z,30.27
2022-08-23T14:38:36.389Z,30.02
2022-08-23T14:43:39.066Z,30.22
2022-08-23T14:48:46.625Z,30.21
2022-08-23T14:53:50.344Z,30.23
2022-08-23T14:58:53.043Z,30.48
2022-08-23T15:03:57.086Z,30.28
2022-08-23T15:08:59.796Z,30.13
2022-08-23T15:14:02.655Z,30.16
2022-08-23T15:19:07.508Z,30.05
2022-08-23T15:24:10.154Z,30.14
2022-08-23T15:29:12.844Z,29.88
2022-08-23T15:34:16.866Z,29.86
2022-08-23T15:39:20.853Z,29.61
2022-08-23T15:44:23.549Z,29.36
2022-08-23T15:49:32.850Z,29.43
2022-08-23T15:54:38.150Z,29.58
2022-08-23T15:59:40.875Z,29.38
2022-08-23T16:04:44.955Z,29.52
2022-08-23T16:09:47.710Z,29.45
2022-08-23T16:14:50.370Z,29.30
2022-08-23T16:19:54.423Z,29.22
2022-08-23T16:24:57.318Z,29.29
2022-08-23T16:30:00.001Z,29.22
2022-08-23T16:35:04.485Z,29.16
2022-08-23T16:40:08.836Z,28.93
2022-08-23T16:45:12.324Z,28.78
2022-08-23T16:50:16.428Z,28.63
2022-08-23T16:55:19.294Z,28.72
2022-08-23T17:00:22.254Z,28.68
2022-08-23T17:05:26.775Z,28.68
2022-08-23T17:10:29.682Z,28.60
2022-08-23T17:15:34.408Z,28.49
2022-08-23T17:20:39.685Z,28.48
2022-08-23T17:25:47.453Z,28.35
2022-08-23T17:30:50.251Z,28.32
2022-08-23T17:35:54.544Z,28.22
2022-08-23T17:40:57.510Z,28.15
2022-08-23T17:46:00.208Z,28.00
2022-08-23T17:51:04.324Z,27.88
2022-08-23T17:56:08.014Z,27.79
2022-08-23T18:01:15.318Z,27.66
2022-08-23T18:06:19.901Z,27.53
2022-08-23T18:11:22.861Z,27.36
2022-08-23T18:16:31.726Z,27.20
2022-08-23T18:21:38.913Z,27.05
2022-08-23T18:26:59.685Z,26.94
2022-08-23T18:32:02.438Z,26.65
2022-08-23T18:37:07.172Z,26.48
2022-08-23T18:42:10.547Z,26.37
2022-08-23T18:47:13.248Z,26.19
2022-08-23T18:52:17.332Z,26.09
2022-08-23T18:57:20.032Z,25.85
2022-08-23T19:02:24.037Z,25.72
2022-08-23T19:07:28.181Z,25.65
2022-08-23T19:12:30.824Z,25.48
2022-08-23T19:17:33.488Z,25.41
2022-08-23T19:22:37.958Z,25.34
2022-08-23T19:27:41.467Z,25.25
2022-08-23T19:32:44.998Z,25.41
2022-08-23T19:37:49.435Z,25.27
2022-08-23T19:42:52.104Z,25.08
2022-08-23T19:47:54.838Z,25.12
2022-08-23T19:52:59.337Z,25.05
2022-08-23T19:58:02.922Z,25.02
2022-08-23T20:03:05.760Z,25.05
2022-08-23T20:08:09.813Z,25.09
2022-08-23T20:13:12.707Z,24.95
2022-08-23T20:18:15.443Z,24.99
2022-08-23T20:23:36.795Z,24.87
2022-08-23T20:28:39.927Z,24.82
2022-08-23T20:34:02.569Z,24.73
2022-08-23T20:39:06.697Z,24.63
2022-08-23T20:44:09.666Z,24.47
2022-08-23T20:49:12.820Z,24.45
2022-08-23T20:54:16.993Z,24.38
2022-08-23T20:59:20.392Z,24.12
2022-08-23T21:04:29.312Z,23.88
2022-08-23T21:09:34.381Z,23.86
2022-08-23T21:14:37.029Z,23.55
2022-08-23T21:19:39.677Z,23.51
2022-08-23T21:24:43.665Z,23.43
2022-08-23T21:29:46.306Z,23.51
2022-08-23T21:34:48.937Z,23.38
2022-08-23T21:39:52.980Z,23.39
2022-08-23T21:44:55.631Z,23.25
2022-08-23T21:49:58.667Z,23.17
2022-08-23T21:55:02.644Z,23.15
2022-08-23T22:00:07.521Z,22.96
2022-08-23T22:05:15.784Z,23.02
2022-08-23T22:10:20.939Z,22.98
2022-08-23T22:15:25.534Z,22.77
2022-08-23T22:20:28.358Z,22.80
2022-08-23T22:25:33.085Z,22.69
2022-08-23T22:30:35.776Z,22.56
2022-08-23T22:35:38.660Z,22.58
2022-08-23T22:40:48.362Z,22.57
2022-08-23T22:45:52.417Z,22.55
2022-08-23T22:51:06.149Z,22.51
2022-08-23T22:56:12.248Z,22.47
2022-08-23T23:01:19.639Z,22.36
2022-08-23T23:06:24.413Z,22.38
2022-08-23T23:11:29.394Z,22.29
2022-08-23T23:16:32.195Z,22.00
2022-08-23T23:21:36.276Z,22.08
2022-08-23T23:26:40.453Z,22.18
2022-08-23T23:31:43.164Z,22.07
2022-08-23T23:36:46.325Z,21.95
2022-08-23T23:41:50.314Z,21.86
2022-08-23T23:46:52.981Z,21.89
2022-08-23T23:51:55.608Z,21.84
2022-08-23T23:56:59.733Z,21.83
